sensor_id;sensor_type;location;lat;lon;timestamp;pressure;altitude;pressure_sealevel;temperature;humidity
62864;BME280;48954;59.950;11.014;2023-09-12T00:01:11;98848.06;;;17.18;90.76
62864;BME280;48954;59.950;11.014;2023-09-12T00:03:52;98850.13;;;17.18;90.93
62864;BME280;48954;59.950;11.014;2023-09-12T00:06:34;98844.58;;;17.18;90.71
62864;BME280;48954;59.950;11.014;2023-09-12T00:09:04;98838.30;;;17.18;90.67
62864;BME280;48954;59.950;11.014;2023-09-12T00:11:36;98839.59;;;17.17;90.62
62864;BME280;48954;59.950;11.014;2023-09-12T00:14:20;98837.21;;;17.17;90.59
62864;BME280;48954;59.950;11.014;2023-09-12T00:17:31;98837.39;;;17.16;90.46
62864;BME280;48954;59.950;11.014;2023-09-12T00:20:34;98833.98;;;17.16;90.39
62864;BME280;48954;59.950;11.014;2023-09-12T00:23:15;98831.38;;;17.14;90.17
62864;BME280;48954;59.950;11.014;2023-09-12T00:25:57;98831.45;;;17.12;90.00
62864;BME280;48954;59.950;11.014;2023-09-12T00:28:43;98827.27;;;17.11;89.91
62864;BME280;48954;59.950;11.014;2023-09-12T00:31:23;98822.48;;;17.07;89.78
62864;BME280;48954;59.950;11.014;2023-09-12T00:34:20;98820.45;;;17.05;89.63
62864;BME280;48954;59.950;11.014;2023-09-12T00:36:57;98823.38;;;17.01;89.62
62864;BME280;48954;59.950;11.014;2023-09-12T00:39:43;98826.85;;;16.99;89.57
62864;BME280;48954;59.950;11.014;2023-09-12T00:42:28;98831.40;;;16.97;89.56
62864;BME280;48954;59.950;11.014;2023-09-12T00:45:15;98830.72;;;16.95;89.57
62864;BME280;48954;59.950;11.014;2023-09-12T00:47:59;98831.54;;;16.93;89.53
62864;BME280;48954;59.950;11.014;2023-09-12T00:50:41;98831.56;;;16.92;89.49
62864;BME280;48954;59.950;11.014;2023-09-12T00:53:24;98834.52;;;16.91;89.53
62864;BME280;48954;59.950;11.014;2023-09-12T00:55:58;98838.48;;;16.91;89.65
62864;BME280;48954;59.950;11.014;2023-09-12T00:58:41;98837.20;;;16.92;89.67
62864;BME280;48954;59.950;11.014;2023-09-12T01:01:25;98836.08;;;16.93;89.56
62864;BME280;48954;59.950;11.014;2023-09-12T01:04:05;98828.95;;;16.92;89.52
62864;BME280;48954;59.950;11.014;2023-09-12T01:06:47;98828.36;;;16.93;89.51
62864;BME280;48954;59.950;11.014;2023-09-12T01:09:16;98827.71;;;16.94;89.42
62864;BME280;48954;59.950;11.014;2023-09-12T01:11:57;98831.02;;;16.95;89.38
62864;BME280;48954;59.950;11.014;2023-09-12T01:14:26;98828.10;;;16.95;89.25
62864;BME280;48954;59.950;11.014;2023-09-12T01:17:07;98831.90;;;16.96;89.26
62864;BME280;48954;59.950;11.014;2023-09-12T01:19:48;98826.27;;;16.96;89.35
62864;BME280;48954;59.950;11.014;2023-09-12T01:26:07;98827.73;;;16.93;89.20
62864;BME280;48954;59.950;11.014;2023-09-12T01:29:00;98827.84;;;16.92;89.19
62864;BME280;48954;59.950;11.014;2023-09-12T01:31:43;98825.16;;;16.91;89.04
62864;BME280;48954;59.950;11.014;2023-09-12T01:34:12;98832.29;;;16.91;89.18
62864;BME280;48954;59.950;11.014;2023-09-12T01:36:53;98834.54;;;16.90;88.99
62864;BME280;48954;59.950;11.014;2023-09-12T01:39:35;98834.68;;;16.90;89.02
62864;BME280;48954;59.950;11.014;2023-09-12T01:42:18;98840.17;;;16.90;88.89
62864;BME280;48954;59.950;11.014;2023-09-12T01:44:59;98839.38;;;16.89;88.90
62864;BME280;48954;59.950;11.014;2023-09-12T01:47:41;98843.94;;;16.88;88.82
62864;BME280;48954;59.950;11.014;2023-09-12T01:50:25;98842.53;;;16.87;88.71
62864;BME280;48954;59.950;11.014;2023-09-12T01:53:07;98844.45;;;16.86;88.71
62864;BME280;48954;59.950;11.014;2023-09-12T01:55:48;98851.84;;;16.86;88.73
62864;BME280;48954;59.950;11.014;2023-09-12T01:58:28;98845.98;;;16.85;88.64
62864;BME280;48954;59.950;11.014;2023-09-12T02:01:11;98847.98;;;16.84;88.68
62864;BME280;48954;59.950;11.014;2023-09-12T02:03:44;98852.52;;;16.83;88.57
62864;BME280;48954;59.950;11.014;2023-09-12T02:06:45;98851.05;;;16.81;88.76
62864;BME280;48954;59.950;11.014;2023-09-12T02:09:26;98854.55;;;16.79;88.77
62864;BME280;48954;59.950;11.014;2023-09-12T02:12:15;98851.31;;;16.78;88.80
62864;BME280;48954;59.950;11.014;2023-09-12T02:14:57;98847.30;;;16.76;88.89
62864;BME280;48954;59.950;11.014;2023-09-12T02:17:46;98841.88;;;16.74;88.98
62864;BME280;48954;59.950;11.014;2023-09-12T02:20:32;98845.56;;;16.72;88.93
62864;BME280;48954;59.950;11.014;2023-09-12T02:23:09;98840.88;;;16.68;89.00
62864;BME280;48954;59.950;11.014;2023-09-12T02:25:37;98835.91;;;16.66;89.01
62864;BME280;48954;59.950;11.014;2023-09-12T02:28:18;98828.89;;;16.63;89.09
62864;BME280;48954;59.950;11.014;2023-09-12T02:30:51;98830.44;;;16.60;89.20
62864;BME280;48954;59.950;11.014;2023-09-12T02:33:21;98824.54;;;16.57;89.29
62864;BME280;48954;59.950;11.014;2023-09-12T02:36:22;98820.91;;;16.55;89.40
62864;BME280;48954;59.950;11.014;2023-09-12T02:39:29;98821.11;;;16.52;89.49
62864;BME280;48954;59.950;11.014;2023-09-12T02:42:39;98831.64;;;16.49;89.77
62864;BME280;48954;59.950;11.014;2023-09-12T02:45:39;98829.22;;;16.47;89.84
62864;BME280;48954;59.950;11.014;2023-09-12T02:48:20;98832.02;;;16.45;90.05
62864;BME280;48954;59.950;11.014;2023-09-12T02:51:04;98831.80;;;16.43;90.06
62864;BME280;48954;59.950;11.014;2023-09-12T02:53:43;98826.59;;;16.42;90.08
62864;BME280;48954;59.950;11.014;2023-09-12T02:56:27;98818.34;;;16.42;90.24
62864;BME280;48954;59.950;11.014;2023-09-12T02:59:09;98821.94;;;16.41;90.33
62864;BME280;48954;59.950;11.014;2023-09-12T03:01:37;98816.72;;;16.39;90.30
62864;BME280;48954;59.950;11.014;2023-09-12T03:04:06;98818.16;;;16.38;90.47
62864;BME280;48954;59.950;11.014;2023-09-12T03:06:47;98824.20;;;16.38;90.41
62864;BME280;48954;59.950;11.014;2023-09-12T03:09:31;98827.94;;;16.37;90.52
62864;BME280;48954;59.950;11.014;2023-09-12T03:12:45;98832.02;;;16.38;90.49
62864;BME280;48954;59.950;11.014;2023-09-12T03:15:53;98834.96;;;16.38;90.58
62864;BME280;48954;59.950;11.014;2023-09-12T03:18:35;98835.52;;;16.39;90.55
62864;BME280;48954;59.950;11.014;2023-09-12T03:21:18;98838.06;;;16.38;90.51
62864;BME280;48954;59.950;11.014;2023-09-12T03:23:59;98838.46;;;16.38;90.42
62864;BME280;48954;59.950;11.014;2023-09-12T03:26:46;98841.88;;;16.38;90.64
62864;BME280;48954;59.950;11.014;2023-09-12T03:29:30;98842.61;;;16.37;90.66
62864;BME280;48954;59.950;11.014;2023-09-12T03:32:12;98835.61;;;16.37;90.69
62864;BME280;48954;59.950;11.014;2023-09-12T03:34:52;98840.55;;;16.36;90.67
62864;BME280;48954;59.950;11.014;2023-09-12T03:37:21;98841.27;;;16.36;90.52
62864;BME280;48954;59.950;11.014;2023-09-12T03:40:08;98841.52;;;16.35;90.63
62864;BME280;48954;59.950;11.014;2023-09-12T03:42:49;98839.42;;;16.34;90.56
62864;BME280;48954;59.950;11.014;2023-09-12T03:45:17;98840.70;;;16.33;90.72
62864;BME280;48954;59.950;11.014;2023-09-12T03:48:01;98841.49;;;16.33;90.66
62864;BME280;48954;59.950;11.014;2023-09-12T03:51:00;98840.30;;;16.33;90.76
62864;BME280;48954;59.950;11.014;2023-09-12T03:53:51;98842.42;;;16.34;90.77
62864;BME280;48954;59.950;11.014;2023-09-12T03:56:32;98840.68;;;16.34;90.60
62864;BME280;48954;59.950;11.014;2023-09-12T03:59:40;98831.11;;;16.33;90.70
62864;BME280;48954;59.950;11.014;2023-09-12T04:02:41;98821.91;;;16.33;90.72
62864;BME280;48954;59.950;11.014;2023-09-12T04:08:32;98821.69;;;16.31;90.75
62864;BME280;48954;59.950;11.014;2023-09-12T04:11:24;98834.31;;;16.31;90.60
62864;BME280;48954;59.950;11.014;2023-09-12T04:19:59;98823.20;;;16.32;90.71
62864;BME280;48954;59.950;11.014;2023-09-12T04:22:37;98819.55;;;16.32;90.84
62864;BME280;48954;59.950;11.014;2023-09-12T04:25:19;98820.99;;;16.31;90.83
62864;BME280;48954;59.950;11.014;2023-09-12T04:28:02;98821.95;;;16.30;90.79
62864;BME280;48954;59.950;11.014;2023-09-12T04:30:42;98815.46;;;16.29;90.87
62864;BME280;48954;59.950;11.014;2023-09-12T04:33:43;98811.66;;;16.29;90.90
62864;BME280;48954;59.950;11.014;2023-09-12T04:39:33;98821.50;;;16.28;90.91
62864;BME280;48954;59.950;11.014;2023-09-12T04:42:37;98830.06;;;16.28;90.93
62864;BME280;48954;59.950;11.014;2023-09-12T04:45:51;98833.06;;;16.29;91.02
62864;BME280;48954;59.950;11.014;2023-09-12T04:49:33;98832.33;;;16.30;90.96
62864;BME280;48954;59.950;11.014;2023-09-12T04:55:39;98835.63;;;16.32;90.95
62864;BME280;48954;59.950;11.014;2023-09-12T04:58:21;98830.54;;;16.34;90.90
62864;BME280;48954;59.950;11.014;2023-09-12T05:29:06;98833.95;;;16.43;90.69
62864;BME280;48954;59.950;11.014;2023-09-12T09:33:11;99022.81;;;16.92;74.37
62864;BME280;48954;59.950;11.014;2023-09-12T09:36:10;99024.80;;;16.91;74.14
62864;BME280;48954;59.950;11.014;2023-09-12T09:39:41;99026.55;;;16.92;73.66
62864;BME280;48954;59.950;11.014;2023-09-12T10:10:41;99045.96;;;17.04;70.15
62864;BME280;48954;59.950;11.014;2023-09-12T10:48:41;99049.05;;;17.36;67.74
62864;BME280;48954;59.950;11.014;2023-09-12T10:52:07;99050.99;;;17.42;67.21
62864;BME280;48954;59.950;11.014;2023-09-12T10:55:57;99057.05;;;17.41;65.77
62864;BME280;48954;59.950;11.014;2023-09-12T11:11:22;99064.29;;;17.51;62.56
62864;BME280;48954;59.950;11.014;2023-09-12T11:14:16;99059.44;;;17.56;61.81
62864;BME280;48954;59.950;11.014;2023-09-12T15:57:25;99148.31;;;20.20;40.89
62864;BME280;48954;59.950;11.014;2023-09-12T16:00:09;99156.70;;;19.92;40.92
62864;BME280;48954;59.950;11.014;2023-09-12T16:03:12;99159.88;;;19.76;40.99
62864;BME280;48954;59.950;11.014;2023-09-12T16:05:55;99161.52;;;19.64;41.09
62864;BME280;48954;59.950;11.014;2023-09-12T16:08:31;99163.85;;;19.53;41.16
62864;BME280;48954;59.950;11.014;2023-09-12T16:11:10;99165.13;;;19.45;41.24
62864;BME280;48954;59.950;11.014;2023-09-12T16:13:51;99165.00;;;19.40;41.13
62864;BME280;48954;59.950;11.014;2023-09-12T16:16:44;99168.88;;;19.34;41.38
62864;BME280;48954;59.950;11.014;2023-09-12T16:19:39;99176.45;;;19.26;41.41
62864;BME280;48954;59.950;11.014;2023-09-12T16:22:15;99176.83;;;19.20;41.38
62864;BME280;48954;59.950;11.014;2023-09-12T16:24:46;99175.20;;;19.15;41.45
62864;BME280;48954;59.950;11.014;2023-09-12T16:30:50;99174.50;;;19.06;41.87
62864;BME280;48954;59.950;11.014;2023-09-12T16:34:12;99178.92;;;19.00;42.46
62864;BME280;48954;59.950;11.014;2023-09-12T16:36:53;99179.75;;;18.95;42.19
62864;BME280;48954;59.950;11.014;2023-09-12T16:55:20;99183.75;;;18.40;41.63
62864;BME280;48954;59.950;11.014;2023-09-12T16:58:03;99190.77;;;18.30;41.58
62864;BME280;48954;59.950;11.014;2023-09-12T17:16:15;99202.52;;;17.83;41.26
62864;BME280;48954;59.950;11.014;2023-09-12T17:22:03;99197.55;;;17.65;41.74
62864;BME280;48954;59.950;11.014;2023-09-12T17:24:59;99200.29;;;17.56;41.63
62864;BME280;48954;59.950;11.014;2023-09-12T17:27:53;99205.27;;;17.46;41.82
62864;BME280;48954;59.950;11.014;2023-09-12T17:30:23;99211.08;;;17.40;41.98
62864;BME280;48954;59.950;11.014;2023-09-12T17:33:05;99209.35;;;17.32;42.16
62864;BME280;48954;59.950;11.014;2023-09-12T17:35:39;99211.23;;;17.22;42.30
62864;BME280;48954;59.950;11.014;2023-09-12T17:41:37;99216.52;;;17.00;42.12
62864;BME280;48954;59.950;11.014;2023-09-12T18:22:18;99260.38;;;15.99;44.40
62864;BME280;48954;59.950;11.014;2023-09-12T18:25:45;99267.09;;;15.92;45.35
62864;BME280;48954;59.950;11.014;2023-09-12T18:40:51;99282.44;;;15.51;45.82
62864;BME280;48954;59.950;11.014;2023-09-12T18:44:16;99286.75;;;15.43;46.62
62864;BME280;48954;59.950;11.014;2023-09-12T18:47:20;99289.09;;;15.32;47.10
62864;BME280;48954;59.950;11.014;2023-09-12T19:06:21;99300.84;;;14.54;49.33
62864;BME280;48954;59.950;11.014;2023-09-12T19:16:24;99318.83;;;14.14;51.60
62864;BME280;48954;59.950;11.014;2023-09-12T19:28:16;99328.95;;;13.73;51.26
62864;BME280;48954;59.950;11.014;2023-09-12T19:31:46;99335.94;;;13.64;51.66
62864;BME280;48954;59.950;11.014;2023-09-12T19:34:36;99339.39;;;13.56;52.18
62864;BME280;48954;59.950;11.014;2023-09-12T19:37:20;99349.38;;;13.48;53.07
62864;BME280;48954;59.950;11.014;2023-09-12T19:40:06;99349.64;;;13.40;53.61
62864;BME280;48954;59.950;11.014;2023-09-12T19:43:17;99352.77;;;13.31;53.22
62864;BME280;48954;59.950;11.014;2023-09-12T19:46:36;99352.73;;;13.21;53.52
62864;BME280;48954;59.950;11.014;2023-09-12T19:49:38;99356.23;;;13.16;53.28
62864;BME280;48954;59.950;11.014;2023-09-12T19:52:20;99359.27;;;13.12;53.68
62864;BME280;48954;59.950;11.014;2023-09-12T19:55:06;99361.04;;;13.06;53.63
62864;BME280;48954;59.950;11.014;2023-09-12T19:57:49;99361.30;;;12.99;53.81
62864;BME280;48954;59.950;11.014;2023-09-12T20:07:26;99367.35;;;12.72;54.53
62864;BME280;48954;59.950;11.014;2023-09-12T20:10:39;99376.77;;;12.66;55.01
62864;BME280;48954;59.950;11.014;2023-09-12T20:13:48;99382.39;;;12.58;55.13
62864;BME280;48954;59.950;11.014;2023-09-12T20:16:28;99379.55;;;12.50;55.31
62864;BME280;48954;59.950;11.014;2023-09-12T20:19:19;99381.15;;;12.42;55.45
62864;BME280;48954;59.950;11.014;2023-09-12T20:22:03;99384.77;;;12.36;56.10
62864;BME280;48954;59.950;11.014;2023-09-12T20:24:45;99388.50;;;12.28;56.25
62864;BME280;48954;59.950;11.014;2023-09-12T20:27:26;99394.80;;;12.21;56.71
62864;BME280;48954;59.950;11.014;2023-09-12T20:30:07;99395.34;;;12.12;56.42
62864;BME280;48954;59.950;11.014;2023-09-12T20:33:11;99393.77;;;12.03;56.51
62864;BME280;48954;59.950;11.014;2023-09-12T20:36:14;99408.36;;;12.00;56.97
62864;BME280;48954;59.950;11.014;2023-09-12T20:39:26;99410.11;;;11.93;57.25
62864;BME280;48954;59.950;11.014;2023-09-12T20:45:27;99427.56;;;11.73;58.11
62864;BME280;48954;59.950;11.014;2023-09-12T20:48:29;99434.38;;;11.65;58.10
62864;BME280;48954;59.950;11.014;2023-09-12T20:51:31;99436.52;;;11.55;58.15
62864;BME280;48954;59.950;11.014;2023-09-12T20:54:25;99438.40;;;11.48;58.75
62864;BME280;48954;59.950;11.014;2023-09-12T20:57:05;99441.80;;;11.38;58.44
62864;BME280;48954;59.950;11.014;2023-09-12T20:59:47;99437.21;;;11.31;58.43
62864;BME280;48954;59.950;11.014;2023-09-12T21:02:15;99436.90;;;11.25;58.71
62864;BME280;48954;59.950;11.014;2023-09-12T21:05:13;99440.20;;;11.21;59.18
62864;BME280;48954;59.950;11.014;2023-09-12T21:07:56;99450.68;;;11.15;59.15
62864;BME280;48954;59.950;11.014;2023-09-12T21:10:39;99447.68;;;11.09;59.40
62864;BME280;48954;59.950;11.014;2023-09-12T21:13:24;99451.79;;;11.01;59.62
62864;BME280;48954;59.950;11.014;2023-09-12T21:16:02;99458.54;;;10.91;60.09
62864;BME280;48954;59.950;11.014;2023-09-12T21:18:29;99460.21;;;10.86;60.40
62864;BME280;48954;59.950;11.014;2023-09-12T21:21:31;99460.64;;;10.80;60.42
62864;BME280;48954;59.950;11.014;2023-09-12T21:24:24;99456.17;;;10.75;60.54
62864;BME280;48954;59.950;11.014;2023-09-12T21:27:10;99458.80;;;10.69;60.74
62864;BME280;48954;59.950;11.014;2023-09-12T21:29:51;99464.66;;;10.62;60.73
62864;BME280;48954;59.950;11.014;2023-09-12T21:32:31;99461.56;;;10.56;60.83
62864;BME280;48954;59.950;11.014;2023-09-12T21:35:17;99470.92;;;10.47;61.07
62864;BME280;48954;59.950;11.014;2023-09-12T21:38:23;99469.17;;;10.33;61.32
62864;BME280;48954;59.950;11.014;2023-09-12T21:41:24;99481.23;;;10.27;61.39
62864;BME280;48954;59.950;11.014;2023-09-12T21:44:05;99481.79;;;10.20;61.67
62864;BME280;48954;59.950;11.014;2023-09-12T21:47:06;99484.50;;;10.16;61.90
